createdAt,value
2023-12-30T00:00:58.994Z,99.26
2023-12-30T00:02:02.756Z,99.16
2023-12-30T00:03:05.510Z,99.16
2023-12-30T00:04:08.100Z,98.97
2023-12-30T00:05:10.506Z,98.85
2023-12-30T00:06:13.598Z,98.77
2023-12-30T00:07:17.015Z,98.80
2023-12-30T00:08:19.211Z,98.85
2023-12-30T00:09:21.578Z,98.81
2023-12-30T00:10:25.832Z,98.87
2023-12-30T00:11:29.006Z,98.75
2023-12-30T00:12:32.028Z,98.91
2023-12-30T00:13:35.376Z,98.83
2023-12-30T00:14:37.843Z,98.76
2023-12-30T00:15:40.116Z,98.83
2023-12-30T00:16:42.912Z,98.87
2023-12-30T00:17:45.906Z,98.78
2023-12-30T00:18:50.081Z,98.65
2023-12-30T00:19:55.175Z,98.64
2023-12-30T00:20:59.792Z,98.70
2023-12-30T00:22:02.785Z,98.46
2023-12-30T00:23:05.448Z,98.50
2023-12-30T00:24:08.140Z,98.31
2023-12-30T00:25:12.036Z,98.15
2023-12-30T00:26:23.240Z,98.32
2023-12-30T00:27:27.514Z,98.41
2023-12-30T00:28:31.119Z,98.55
2023-12-30T00:29:33.633Z,98.21
2023-12-30T00:30:37.881Z,98.10
2023-12-30T00:31:40.559Z,98.23
2023-12-30T00:32:43.030Z,98.29
2023-12-30T00:33:46.053Z,98.24
2023-12-30T00:34:48.541Z,98.32
2023-12-30T00:35:50.778Z,98.37
2023-12-30T00:36:55.151Z,98.52
2023-12-30T00:37:58.360Z,98.29
2023-12-30T00:39:00.772Z,98.38
2023-12-30T00:40:03.998Z,98.22
2023-12-30T00:41:07.629Z,98.16
2023-12-30T00:42:09.897Z,97.97
2023-12-30T00:43:13.995Z,97.99
2023-12-30T00:44:17.526Z,97.92
2023-12-30T00:45:21.683Z,97.91
2023-12-30T00:46:25.378Z,97.96
2023-12-30T00:47:27.818Z,98.13
2023-12-30T00:48:30.666Z,98.07
2023-12-30T00:49:33.343Z,98.16
2023-12-30T00:50:36.707Z,97.83
2023-12-30T00:51:39.165Z,97.61
2023-12-30T00:52:41.869Z,97.53
2023-12-30T00:53:44.119Z,97.66
2023-12-30T00:54:51.239Z,97.66
2023-12-30T00:55:54.670Z,97.58
2023-12-30T00:56:57.428Z,97.72
2023-12-30T00:58:00.363Z,97.37
2023-12-30T00:59:03.581Z,97.33
2023-12-30T01:00:07.789Z,97.36
2023-12-30T01:01:10.753Z,97.65
2023-12-30T01:02:14.259Z,97.69
2023-12-30T01:03:16.804Z,97.84
2023-12-30T01:04:19.674Z,97.74
2023-12-30T01:05:22.232Z,97.75
2023-12-30T01:06:26.709Z,97.50
2023-12-30T01:07:29.192Z,97.35
2023-12-30T01:08:31.644Z,97.46
2023-12-30T01:09:34.259Z,97.44
2023-12-30T01:10:36.786Z,97.39
2023-12-30T01:11:39.229Z,97.52
2023-12-30T01:12:41.757Z,97.55
2023-12-30T01:13:44.300Z,97.74
2023-12-30T01:14:47.716Z,97.86
2023-12-30T01:15:51.181Z,97.93
2023-12-30T01:16:56.559Z,97.88
2023-12-30T01:18:00.577Z,97.90
2023-12-30T01:19:03.634Z,97.63
2023-12-30T01:20:09.319Z,97.93
2023-12-30T01:21:12.175Z,98.38
2023-12-30T01:22:14.888Z,98.08
2023-12-30T01:23:18.008Z,97.79
2023-12-30T01:24:20.645Z,97.69
2023-12-30T01:25:23.139Z,97.77
2023-12-30T01:26:26.986Z,97.87
2023-12-30T01:27:29.353Z,98.02
2023-12-30T01:28:32.275Z,97.95
2023-12-30T01:29:34.489Z,97.78
2023-12-30T01:30:37.461Z,97.70
2023-12-30T01:31:40.308Z,97.82
2023-12-30T01:32:42.924Z,98.36
2023-12-30T01:33:46.076Z,97.88
2023-12-30T01:34:49.265Z,97.71
2023-12-30T01:35:52.041Z,97.75
2023-12-30T01:36:55.264Z,97.54
2023-12-30T01:37:57.624Z,97.57
2023-12-30T01:38:59.850Z,97.54
2023-12-30T01:40:03.253Z,97.25
2023-12-30T01:41:05.804Z,97.39
2023-12-30T01:42:08.551Z,97.27
2023-12-30T01:43:28.390Z,97.25
2023-12-30T01:44:31.005Z,97.29
2023-12-30T01:45:33.834Z,97.30
2023-12-30T01:46:38.338Z,97.26
2023-12-30T01:47:41.926Z,97.27
2023-12-30T01:48:44.772Z,97.47
2023-12-30T01:49:47.398Z,97.46
2023-12-30T01:50:52.146Z,97.47
2023-12-30T01:51:55.048Z,97.45
2023-12-30T01:52:58.823Z,97.44
2023-12-30T01:54:03.747Z,97.38
2023-12-30T01:55:08.898Z,97.25
2023-12-30T01:56:13.212Z,97.27
2023-12-30T01:57:16.281Z,97.24
2023-12-30T01:58:19.776Z,97.31
2023-12-30T01:59:25.250Z,97.43
2023-12-30T02:00:31.277Z,97.46
2023-12-30T02:01:34.879Z,97.41
2023-12-30T02:02:39.365Z,97.31
2023-12-30T02:03:43.313Z,97.35
2023-12-30T02:04:47.325Z,97.51
2023-12-30T02:05:49.650Z,97.45
2023-12-30T02:06:52.430Z,97.46
2023-12-30T02:07:54.941Z,97.40
2023-12-30T02:08:57.438Z,97.33
2023-12-30T02:09:59.943Z,97.24
2023-12-30T02:11:05.033Z,97.12
2023-12-30T02:12:09.507Z,97.12
2023-12-30T02:13:12.049Z,97.18
2023-12-30T02:14:32.027Z,97.24
2023-12-30T02:15:36.238Z,97.44
2023-12-30T02:16:40.559Z,97.56
2023-12-30T02:17:43.044Z,97.61
2023-12-30T02:18:47.105Z,97.66
2023-12-30T02:19:51.384Z,97.70
2023-12-30T02:20:55.227Z,97.62
2023-12-30T02:21:58.866Z,97.69
2023-12-30T02:23:02.214Z,97.80
2023-12-30T02:24:05.586Z,97.77
2023-12-30T02:25:10.309Z,97.80
2023-12-30T02:26:13.470Z,97.78
2023-12-30T02:27:15.743Z,97.73
2023-12-30T02:28:18.540Z,97.68
2023-12-30T02:29:21.989Z,97.57
2023-12-30T02:30:25.758Z,97.56
2023-12-30T02:31:29.643Z,97.58
2023-12-30T02:32:32.470Z,97.60
2023-12-30T02:33:35.649Z,97.70
2023-12-30T02:34:38.661Z,97.85
2023-12-30T02:35:44.284Z,98.02
2023-12-30T02:36:48.779Z,98.05
2023-12-30T02:37:51.990Z,98.06
2023-12-30T02:38:54.592Z,98.12
2023-12-30T02:39:56.860Z,98.06
2023-12-30T02:40:59.442Z,98.05
2023-12-30T02:42:01.792Z,97.97
2023-12-30T02:43:04.976Z,97.88
2023-12-30T02:44:08.741Z,98.07
2023-12-30T02:45:12.439Z,98.09
2023-12-30T02:46:16.308Z,98.13
2023-12-30T02:47:18.692Z,98.12
2023-12-30T02:48:20.909Z,98.18
2023-12-30T02:49:24.171Z,98.21
2023-12-30T02:50:26.748Z,98.40
2023-12-30T02:51:30.193Z,98.32
2023-12-30T02:52:33.340Z,98.38
2023-12-30T02:53:36.139Z,98.33
2023-12-30T02:54:40.251Z,98.24
2023-12-30T02:55:43.063Z,98.32
2023-12-30T02:56:45.787Z,98.45
2023-12-30T02:57:49.962Z,98.16
2023-12-30T02:59:01.717Z,98.12
2023-12-30T03:00:05.748Z,98.20
2023-12-30T03:01:08.221Z,98.27
2023-12-30T03:02:11.020Z,98.25
2023-12-30T03:03:14.836Z,98.29
2023-12-30T03:04:17.025Z,98.23
2023-12-30T03:05:19.864Z,98.14
2023-12-30T03:06:23.525Z,98.05
2023-12-30T03:07:26.788Z,98.02
2023-12-30T03:08:30.144Z,97.95
2023-12-30T03:09:33.553Z,97.94
2023-12-30T03:10:37.216Z,97.95
2023-12-30T03:11:41.487Z,97.99
2023-12-30T03:12:44.396Z,97.96
2023-12-30T03:13:47.913Z,98.06
2023-12-30T03:14:50.320Z,98.09
2023-12-30T03:15:53.918Z,98.19
2023-12-30T03:16:58.193Z,98.23
2023-12-30T03:18:00.862Z,98.37
2023-12-30T03:19:05.511Z,98.42
2023-12-30T03:20:10.674Z,98.43
2023-12-30T03:21:16.704Z,98.45
2023-12-30T03:22:19.221Z,98.35
2023-12-30T03:23:21.717Z,98.43
2023-12-30T03:24:23.781Z,98.48
2023-12-30T03:25:25.995Z,98.46
2023-12-30T03:26:30.561Z,98.51
2023-12-30T03:27:32.977Z,98.60
2023-12-30T03:28:35.452Z,98.63
2023-12-30T03:29:39.098Z,98.53
2023-12-30T03:30:42.418Z,98.46
2023-12-30T03:31:44.674Z,98.54
2023-12-30T03:32:48.664Z,98.52
2023-12-30T03:33:53.867Z,98.51
2023-12-30T03:34:57.010Z,98.65
2023-12-30T03:35:59.626Z,98.65
2023-12-30T03:37:02.033Z,98.58
2023-12-30T03:38:04.786Z,98.59
2023-12-30T03:39:10.908Z,98.79
2023-12-30T03:40:13.843Z,98.91
2023-12-30T03:41:17.147Z,98.84
2023-12-30T03:42:19.457Z,98.85
2023-12-30T03:43:21.820Z,98.77
2023-12-30T03:44:27.046Z,98.78
2023-12-30T03:45:29.671Z,98.79
2023-12-30T03:46:32.826Z,98.71
2023-12-30T03:47:35.389Z,98.68
2023-12-30T03:48:39.333Z,98.65
2023-12-30T03:49:42.572Z,98.66
2023-12-30T03:50:45.347Z,98.45
2023-12-30T03:51:47.507Z,98.35
2023-12-30T03:52:51.640Z,98.35
2023-12-30T03:53:55.472Z,98.30
2023-12-30T03:54:57.898Z,98.16
2023-12-30T03:56:00.840Z,98.15
2023-12-30T03:57:03.846Z,98.23
2023-12-30T03:58:06.382Z,98.14
2023-12-30T03:59:08.882Z,98.10
2023-12-30T04:00:14.015Z,98.10
2023-12-30T04:01:16.558Z,98.16
2023-12-30T04:02:21.118Z,98.11
2023-12-30T04:03:23.705Z,98.08
2023-12-30T04:04:26.348Z,98.01
2023-12-30T04:05:29.658Z,97.97
2023-12-30T04:06:33.188Z,98.01
2023-12-30T04:07:37.108Z,98.00
2023-12-30T04:08:39.309Z,98.00
2023-12-30T04:09:41.524Z,98.01
2023-12-30T04:10:43.982Z,98.16
2023-12-30T04:11:46.454Z,98.06
2023-12-30T04:12:48.966Z,98.08
2023-12-30T04:13:51.598Z,98.11
2023-12-30T04:14:55.273Z,98.19
2023-12-30T04:15:57.541Z,98.17
2023-12-30T04:17:01.225Z,98.24
2023-12-30T04:18:04.669Z,98.29
2023-12-30T04:19:07.852Z,98.28
2023-12-30T04:20:11.131Z,98.26
2023-12-30T04:21:13.649Z,98.11
2023-12-30T04:22:16.050Z,98.15
2023-12-30T04:23:18.253Z,98.18
2023-12-30T04:24:22.375Z,98.18
2023-12-30T04:25:24.998Z,98.19
2023-12-30T04:26:27.607Z,98.18
2023-12-30T04:27:31.008Z,98.24
2023-12-30T04:28:33.294Z,98.38
2023-12-30T04:29:35.806Z,98.39
2023-12-30T04:30:38.619Z,98.36
2023-12-30T04:31:40.861Z,98.20
2023-12-30T04:32:43.478Z,98.21
2023-12-30T04:33:46.383Z,98.23
2023-12-30T04:34:49.981Z,98.23
2023-12-30T04:35:52.933Z,98.28
2023-12-30T04:36:55.430Z,98.38
2023-12-30T04:37:57.892Z,98.47
2023-12-30T04:39:00.291Z,98.58
2023-12-30T04:40:03.578Z,98.66
2023-12-30T04:41:06.229Z,98.62
2023-12-30T04:42:11.056Z,98.65
2023-12-30T04:43:13.558Z,98.63
2023-12-30T04:44:16.605Z,98.70
2023-12-30T04:45:19.577Z,98.73
2023-12-30T04:46:22.603Z,98.62
2023-12-30T04:47:25.514Z,98.71
2023-12-30T04:48:27.936Z,98.59
2023-12-30T04:49:30.902Z,98.51
2023-12-30T04:50:36.219Z,98.52
2023-12-30T04:51:38.988Z,98.53
2023-12-30T04:52:44.420Z,98.49
2023-12-30T04:53:51.919Z,98.59
2023-12-30T04:54:54.297Z,98.50
2023-12-30T04:55:56.742Z,98.35
2023-12-30T04:57:01.417Z,98.27
2023-12-30T04:58:04.120Z,98.40
2023-12-30T04:59:07.166Z,98.49
2023-12-30T05:00:12.986Z,98.31
2023-12-30T05:01:15.418Z,98.17
2023-12-30T05:02:18.741Z,98.29
2023-12-30T05:03:21.716Z,98.25
2023-12-30T05:04:24.115Z,98.46
2023-12-30T05:05:26.323Z,98.67
2023-12-30T05:06:30.801Z,98.43
2023-12-30T05:07:33.442Z,98.17
2023-12-30T05:08:37.318Z,98.13
2023-12-30T05:09:39.713Z,98.25
2023-12-30T05:10:43.545Z,98.53
2023-12-30T05:11:48.819Z,98.71
2023-12-30T05:12:51.343Z,98.55
2023-12-30T05:13:53.870Z,98.13
2023-12-30T05:14:58.696Z,98.11
2023-12-30T05:16:01.446Z,97.79
2023-12-30T05:17:04.041Z,98.11
2023-12-30T05:18:06.788Z,97.58
2023-12-30T05:19:11.403Z,97.44
2023-12-30T05:20:16.463Z,97.53
2023-12-30T05:21:18.971Z,97.35
2023-12-30T05:22:21.399Z,97.27
2023-12-30T05:23:24.141Z,97.77
2023-12-30T05:24:26.821Z,98.35
2023-12-30T05:25:29.590Z,98.44
2023-12-30T05:26:33.357Z,98.65
2023-12-30T05:27:36.233Z,98.90
2023-12-30T05:28:39.604Z,99.43
2023-12-30T05:29:42.382Z,99.70
2023-12-30T05:30:45.209Z,100.00
2023-12-30T05:31:47.996Z,100.00
2023-12-30T05:32:50.433Z,100.00
2023-12-30T05:33:52.714Z,100.00
2023-12-30T05:34:55.964Z,100.00
2023-12-30T05:35:59.143Z,100.00
2023-12-30T05:37:01.714Z,100.00
2023-12-30T05:38:04.210Z,100.00
2023-12-30T05:39:06.624Z,100.00
2023-12-30T05:40:11.103Z,100.00
2023-12-30T05:41:13.307Z,100.00
2023-12-30T05:42:16.854Z,100.00
2023-12-30T05:43:19.848Z,100.00
2023-12-30T05:44:22.093Z,100.00
2023-12-30T05:45:25.581Z,100.00
2023-12-30T05:46:29.692Z,100.00
2023-12-30T05:47:32.131Z,100.00
2023-12-30T05:48:35.025Z,100.00
2023-12-30T05:49:42.868Z,100.00
2023-12-30T05:50:45.465Z,100.00
2023-12-30T05:51:48.421Z,100.00
2023-12-30T05:52:52.582Z,100.00
2023-12-30T05:53:55.807Z,100.00
2023-12-30T05:54:58.218Z,100.00
2023-12-30T05:56:00.362Z,100.00
2023-12-30T05:57:03.350Z,100.00
2023-12-30T05:58:06.079Z,100.00
2023-12-30T05:59:09.013Z,100.00
2023-12-30T06:00:12.591Z,100.00
2023-12-30T06:01:14.827Z,100.00
2023-12-30T06:02:17.275Z,100.00
2023-12-30T06:03:20.535Z,100.00
2023-12-30T06:04:23.263Z,100.00
2023-12-30T06:05:26.479Z,100.00
2023-12-30T06:06:32.997Z,100.00
2023-12-30T06:07:37.536Z,100.00
2023-12-30T06:08:39.728Z,100.00
2023-12-30T06:09:42.593Z,100.00
2023-12-30T06:10:46.997Z,100.00
2023-12-30T06:11:49.723Z,100.00
2023-12-30T06:12:52.028Z,100.00
2023-12-30T06:13:54.388Z,100.00
2023-12-30T06:14:59.091Z,100.00
2023-12-30T06:16:01.452Z,100.00
2023-12-30T06:17:04.134Z,100.00
2023-12-30T06:18:07.049Z,100.00
2023-12-30T06:19:09.766Z,100.00
2023-12-30T06:20:16.796Z,100.00
2023-12-30T06:21:20.113Z,100.00
2023-12-30T06:22:22.734Z,100.00
2023-12-30T06:23:24.970Z,100.00
2023-12-30T06:24:27.592Z,100.00
2023-12-30T06:25:31.335Z,100.00
2023-12-30T06:26:39.200Z,100.00
2023-12-30T06:27:41.862Z,100.00
2023-12-30T06:28:44.300Z,100.00
2023-12-30T06:29:48.649Z,100.00
2023-12-30T06:30:53.160Z,100.00
2023-12-30T06:31:56.636Z,100.00
2023-12-30T06:33:00.187Z,100.00
2023-12-30T06:34:02.892Z,100.00
2023-12-30T06:35:06.309Z,100.00
2023-12-30T06:36:09.513Z,100.00
2023-12-30T06:37:13.018Z,100.00
2023-12-30T06:38:16.523Z,100.00
2023-12-30T06:39:19.603Z,100.00
2023-12-30T06:40:22.207Z,100.00
2023-12-30T06:41:25.780Z,100.00
2023-12-30T06:42:27.908Z,100.00
2023-12-30T06:43:30.339Z,100.00
2023-12-30T06:44:32.843Z,100.00
2023-12-30T06:45:35.620Z,100.00
2023-12-30T06:46:39.020Z,100.00
2023-12-30T06:47:43.006Z,100.00
2023-12-30T06:48:45.501Z,100.00
2023-12-30T06:49:51.337Z,100.00
2023-12-30T06:50:55.758Z,100.00
2023-12-30T06:51:58.660Z,100.00
2023-12-30T06:53:01.239Z,100.00
2023-12-30T06:54:03.733Z,100.00
2023-12-30T06:55:18.006Z,100.00
2023-12-30T06:56:12.547Z,100.00
2023-12-30T06:57:15.477Z,100.00
2023-12-30T06:58:17.566Z,100.00
2023-12-30T06:59:20.622Z,100.00
2023-12-30T07:00:23.412Z,100.00
2023-12-30T07:01:26.007Z,100.00
2023-12-30T07:02:28.277Z,100.00
2023-12-30T07:03:30.550Z,100.00
2023-12-30T07:04:33.359Z,100.00
2023-12-30T07:05:36.583Z,100.00
2023-12-30T07:06:39.400Z,100.00
2023-12-30T07:07:41.519Z,100.00
2023-12-30T07:08:43.862Z,100.00
2023-12-30T07:09:46.571Z,100.00
2023-12-30T07:10:53.969Z,100.00
2023-12-30T07:11:56.249Z,100.00
2023-12-30T07:12:59.644Z,100.00
2023-12-30T07:14:02.045Z,100.00
2023-12-30T07:15:05.181Z,100.00
2023-12-30T07:16:09.082Z,100.00
2023-12-30T07:17:12.213Z,100.00
2023-12-30T07:18:15.050Z,100.00
2023-12-30T07:19:18.132Z,100.00
2023-12-30T07:20:26.741Z,100.00
2023-12-30T07:21:29.738Z,100.00
2023-12-30T07:22:34.071Z,100.00
2023-12-30T07:23:36.505Z,100.00
2023-12-30T07:24:39.062Z,100.00
2023-12-30T07:25:42.574Z,100.00
2023-12-30T07:26:45.952Z,100.00
2023-12-30T07:27:48.550Z,100.00
2023-12-30T07:28:51.896Z,100.00
2023-12-30T07:29:54.283Z,100.00
2023-12-30T07:30:56.720Z,100.00
2023-12-30T07:32:01.330Z,100.00
2023-12-30T07:33:04.963Z,100.00
2023-12-30T07:34:08.420Z,100.00
2023-12-30T07:35:10.990Z,100.00
2023-12-30T07:36:15.070Z,100.00
2023-12-30T07:37:17.336Z,100.00
2023-12-30T07:38:20.108Z,100.00
2023-12-30T07:39:22.930Z,100.00
2023-12-30T07:40:27.281Z,100.00
2023-12-30T07:41:29.400Z,100.00
2023-12-30T07:42:31.636Z,100.00
2023-12-30T07:43:35.043Z,100.00
2023-12-30T07:44:38.643Z,100.00
2023-12-30T07:45:41.982Z,100.00
2023-12-30T07:46:44.603Z,100.00
2023-12-30T07:47:46.890Z,100.00
2023-12-30T07:48:49.397Z,100.00
2023-12-30T07:49:52.673Z,100.00
2023-12-30T07:50:56.797Z,100.00
2023-12-30T07:52:02.020Z,100.00
2023-12-30T07:53:05.230Z,100.00
2023-12-30T07:54:07.813Z,100.00
2023-12-30T07:55:11.374Z,100.00
2023-12-30T07:56:14.816Z,100.00
2023-12-30T07:57:17.608Z,100.00
2023-12-30T07:58:19.941Z,100.00
2023-12-30T07:59:22.138Z,100.00
2023-12-30T08:00:25.960Z,100.00
2023-12-30T08:01:29.665Z,100.00
2023-12-30T08:02:31.914Z,100.00
2023-12-30T08:03:34.588Z,99.85
2023-12-30T08:04:37.190Z,99.55
2023-12-30T08:05:41.234Z,99.26
2023-12-30T08:06:43.703Z,99.39
2023-12-30T08:07:46.372Z,99.51
2023-12-30T08:08:49.208Z,99.35
2023-12-30T08:09:51.375Z,99.17
2023-12-30T08:10:54.721Z,98.96
2023-12-30T08:12:02.798Z,98.38
2023-12-30T08:13:04.684Z,98.28
2023-12-30T08:14:08.369Z,98.28
2023-12-30T08:15:11.681Z,97.68
2023-12-30T08:16:15.509Z,97.40
2023-12-30T08:17:17.703Z,97.55
2023-12-30T08:18:19.895Z,97.50
2023-12-30T08:19:23.038Z,97.51
2023-12-30T08:20:27.252Z,97.62
2023-12-30T08:21:30.263Z,97.33
2023-12-30T08:22:33.303Z,97.03
2023-12-30T08:23:36.380Z,96.81
2023-12-30T08:24:38.976Z,96.32
2023-12-30T08:25:41.510Z,95.89
2023-12-30T08:26:48.540Z,96.08
2023-12-30T08:27:51.456Z,96.00
2023-12-30T08:28:55.874Z,96.12
2023-12-30T08:29:58.257Z,96.06
2023-12-30T08:31:03.802Z,96.03
2023-12-30T08:32:08.510Z,96.23
2023-12-30T08:33:12.315Z,95.67
2023-12-30T08:34:15.984Z,95.39
2023-12-30T08:35:18.651Z,95.54
2023-12-30T08:36:23.668Z,95.41
2023-12-30T08:37:27.302Z,95.09
2023-12-30T08:38:31.492Z,94.89
2023-12-30T08:39:33.733Z,94.54
2023-12-30T08:40:37.286Z,94.46
2023-12-30T08:41:41.670Z,94.76
2023-12-30T08:42:48.697Z,95.12
2023-12-30T08:45:13.695Z,95.26
2023-12-30T08:46:17.369Z,94.93
2023-12-30T08:47:20.889Z,94.97
2023-12-30T08:48:23.491Z,94.83
2023-12-30T08:49:26.286Z,94.83
2023-12-30T08:50:33.810Z,94.63
2023-12-30T08:51:36.381Z,94.69
2023-12-30T08:52:38.840Z,94.18
2023-12-30T08:53:41.005Z,93.97
2023-12-30T08:54:43.255Z,93.81
2023-12-30T08:55:45.611Z,93.27
2023-12-30T08:56:50.544Z,93.01
2023-12-30T08:57:53.957Z,92.61
2023-12-30T08:58:56.515Z,92.42
2023-12-30T08:59:58.556Z,92.67
2023-12-30T09:01:00.940Z,92.52
2023-12-30T09:02:07.288Z,92.02
2023-12-30T09:03:09.638Z,91.92
2023-12-30T09:04:12.724Z,92.06
2023-12-30T09:05:20.011Z,92.41
2023-12-30T09:06:22.469Z,92.23
2023-12-30T09:07:25.570Z,92.11
2023-12-30T09:08:30.145Z,92.42
2023-12-30T09:09:32.473Z,92.40
2023-12-30T09:10:35.813Z,92.59
2023-12-30T09:11:38.748Z,92.34
2023-12-30T09:12:42.639Z,92.42
2023-12-30T09:13:45.114Z,92.44
2023-12-30T09:14:47.663Z,92.01
2023-12-30T09:15:51.379Z,91.92
2023-12-30T09:16:54.881Z,91.77
2023-12-30T09:17:59.526Z,91.90
2023-12-30T09:19:04.399Z,91.51
2023-12-30T09:20:08.777Z,90.42
2023-12-30T09:21:12.101Z,90.12
2023-12-30T09:22:14.532Z,89.78
2023-12-30T09:23:18.142Z,89.70
2023-12-30T09:24:20.431Z,89.59
2023-12-30T09:25:23.535Z,89.54
2023-12-30T09:26:28.749Z,89.56
2023-12-30T09:27:31.089Z,89.15
2023-12-30T09:28:35.209Z,89.25
2023-12-30T09:29:37.958Z,89.79
2023-12-30T09:30:41.799Z,89.98
2023-12-30T09:31:44.105Z,90.14
2023-12-30T09:32:47.022Z,90.00
2023-12-30T09:33:50.284Z,90.04
2023-12-30T09:34:54.272Z,89.97
2023-12-30T09:35:56.738Z,89.60
2023-12-30T09:36:59.561Z,89.67
2023-12-30T09:38:02.380Z,89.77
2023-12-30T09:39:06.485Z,89.92
2023-12-30T09:40:10.525Z,89.88
2023-12-30T09:41:14.369Z,89.42
2023-12-30T09:42:16.972Z,89.59
2023-12-30T09:43:23.840Z,89.59
2023-12-30T09:44:27.011Z,89.49
2023-12-30T09:45:32.740Z,89.36
2023-12-30T09:46:37.544Z,89.70
2023-12-30T09:47:46.705Z,89.89
2023-12-30T09:48:52.231Z,90.03
2023-12-30T09:49:57.277Z,90.05
2023-12-30T09:51:02.538Z,89.95
2023-12-30T09:52:08.788Z,90.08
2023-12-30T09:53:11.780Z,89.82
2023-12-30T09:54:14.688Z,89.85
2023-12-30T09:55:18.344Z,89.56
2023-12-30T09:56:24.955Z,89.57
2023-12-30T09:57:27.993Z,89.73
2023-12-30T09:58:34.317Z,90.07
2023-12-30T09:59:38.996Z,90.00
2023-12-30T10:00:48.247Z,89.92
2023-12-30T10:01:52.070Z,89.90
2023-12-30T10:02:54.595Z,89.62
2023-12-30T10:03:57.056Z,89.08
2023-12-30T10:05:02.566Z,88.89
2023-12-30T10:07:21.761Z,88.80
2023-12-30T10:08:25.043Z,88.56
2023-12-30T10:09:29.498Z,88.62
2023-12-30T10:10:46.251Z,88.41
2023-12-30T10:11:50.522Z,88.12
2023-12-30T10:12:52.804Z,87.36
2023-12-30T10:13:55.173Z,87.43
2023-12-30T10:14:57.474Z,87.62
2023-12-30T10:16:01.955Z,87.54
2023-12-30T10:17:05.529Z,87.23
2023-12-30T10:18:09.485Z,87.29
2023-12-30T10:19:17.391Z,86.40
2023-12-30T10:20:23.731Z,86.34
2023-12-30T10:21:26.880Z,85.76
2023-12-30T10:22:30.709Z,85.77
2023-12-30T10:23:35.478Z,85.82
2023-12-30T10:24:38.775Z,86.01
2023-12-30T10:25:44.365Z,86.31
2023-12-30T10:26:51.696Z,86.14
2023-12-30T10:27:55.369Z,85.75
2023-12-30T10:28:59.116Z,86.02
2023-12-30T10:30:01.970Z,85.77
2023-12-30T10:31:07.889Z,85.70
2023-12-30T10:32:11.155Z,85.29
2023-12-30T10:33:15.534Z,84.67
2023-12-30T10:34:22.992Z,85.63
2023-12-30T10:35:25.461Z,86.24
2023-12-30T10:36:30.498Z,86.43
2023-12-30T10:37:33.429Z,86.77
2023-12-30T10:38:41.260Z,87.00
2023-12-30T10:39:46.436Z,87.26
2023-12-30T10:40:53.625Z,87.35
2023-12-30T10:41:57.530Z,87.50
2023-12-30T10:43:01.776Z,87.47
2023-12-30T10:44:04.455Z,87.54
2023-12-30T10:45:08.509Z,87.25
2023-12-30T10:46:13.607Z,87.15
2023-12-30T10:47:16.458Z,87.24
2023-12-30T10:48:20.966Z,87.30
2023-12-30T10:49:26.349Z,87.86
2023-12-30T10:50:30.158Z,87.45
2023-12-30T10:51:36.091Z,89.71
2023-12-30T10:54:08.566Z,87.83
2023-12-30T10:55:14.086Z,86.51
2023-12-30T10:56:20.672Z,91.15
2023-12-30T10:57:27.948Z,90.13
2023-12-30T10:58:40.949Z,86.77
2023-12-30T10:59:44.282Z,85.27
2023-12-30T11:01:03.464Z,85.83
2023-12-30T11:02:07.639Z,86.09
2023-12-30T11:03:11.215Z,84.41
2023-12-30T11:04:16.452Z,82.38
2023-12-30T11:05:34.786Z,86.19
2023-12-30T11:06:44.615Z,83.37
2023-12-30T11:07:47.552Z,82.72
2023-12-30T11:08:53.180Z,82.45
2023-12-30T11:10:00.005Z,85.18
2023-12-30T11:11:03.959Z,86.15
2023-12-30T11:12:09.950Z,84.15
2023-12-30T11:13:12.413Z,81.88
2023-12-30T11:14:16.723Z,83.26
2023-12-30T11:15:25.779Z,83.35
2023-12-30T11:16:32.344Z,81.19
2023-12-30T11:17:36.295Z,81.54
2023-12-30T11:18:48.702Z,81.95
2023-12-30T11:19:52.324Z,81.78
2023-12-30T11:20:56.342Z,81.88
2023-12-30T11:22:00.880Z,82.31
2023-12-30T11:23:04.934Z,82.64
2023-12-30T11:24:12.174Z,84.24
2023-12-30T11:25:14.940Z,85.88
2023-12-30T11:26:18.999Z,84.26
2023-12-30T11:27:23.185Z,84.51
2023-12-30T11:28:26.640Z,85.44
2023-12-30T11:29:30.125Z,83.46
2023-12-30T11:30:34.607Z,83.95
2023-12-30T11:31:40.163Z,82.32
2023-12-30T11:32:43.177Z,81.64
2023-12-30T11:33:45.986Z,81.47
2023-12-30T11:34:50.426Z,82.00
2023-12-30T11:35:56.495Z,81.32
2023-12-30T11:37:00.196Z,81.48
2023-12-30T11:38:07.861Z,82.24
2023-12-30T11:39:15.112Z,81.37
2023-12-30T11:40:22.506Z,82.23
2023-12-30T11:41:28.811Z,81.33
2023-12-30T11:42:38.005Z,81.32
2023-12-30T11:43:36.902Z,81.38
2023-12-30T11:44:40.328Z,80.71
2023-12-30T11:45:44.417Z,81.19
2023-12-30T11:46:50.252Z,80.69
2023-12-30T11:47:55.720Z,80.73
2023-12-30T11:49:00.476Z,80.50
2023-12-30T11:50:13.262Z,80.17
2023-12-30T11:51:24.056Z,82.47
2023-12-30T11:52:26.987Z,80.54
2023-12-30T11:53:35.623Z,79.79
2023-12-30T11:54:40.099Z,81.26
2023-12-30T11:55:42.636Z,80.70
2023-12-30T11:56:46.306Z,79.45
2023-12-30T11:57:49.182Z,79.47
2023-12-30T11:58:52.819Z,78.45
2023-12-30T11:59:57.273Z,78.71
2023-12-30T12:01:09.884Z,79.36
2023-12-30T12:02:14.320Z,79.13
2023-12-30T12:03:17.043Z,80.63
2023-12-30T12:04:19.390Z,80.89
2023-12-30T12:05:21.849Z,80.64
2023-12-30T12:06:27.132Z,80.88
2023-12-30T12:07:29.527Z,80.34
2023-12-30T12:08:31.812Z,80.14
2023-12-30T12:09:33.976Z,80.14
2023-12-30T12:10:36.803Z,79.62
2023-12-30T12:11:39.899Z,79.31
2023-12-30T12:12:45.213Z,79.10
2023-12-30T12:13:48.239Z,79.22
2023-12-30T12:14:54.103Z,79.92
2023-12-30T12:15:58.251Z,79.48
2023-12-30T12:17:08.542Z,79.72
2023-12-30T12:18:12.092Z,78.53
2023-12-30T12:19:19.262Z,78.72
2023-12-30T12:20:25.097Z,78.52
2023-12-30T12:21:28.603Z,78.57
2023-12-30T12:22:32.494Z,77.63
2023-12-30T12:23:37.730Z,77.01
2023-12-30T12:24:41.691Z,77.04
2023-12-30T12:25:46.087Z,76.46
2023-12-30T12:26:49.886Z,77.12
2023-12-30T12:27:52.606Z,76.82
2023-12-30T12:28:56.072Z,76.44
2023-12-30T12:29:59.688Z,76.56
2023-12-30T12:31:03.127Z,76.63
2023-12-30T12:32:08.064Z,76.65
2023-12-30T12:33:14.164Z,77.25
2023-12-30T12:34:26.648Z,76.22
2023-12-30T12:35:30.801Z,78.82
2023-12-30T12:36:34.188Z,81.02
2023-12-30T12:37:36.856Z,78.98
2023-12-30T12:38:40.197Z,75.50
2023-12-30T12:39:50.092Z,75.11
2023-12-30T12:40:55.022Z,75.52
2023-12-30T12:41:58.633Z,75.35
2023-12-30T12:43:01.903Z,75.28
2023-12-30T12:44:05.302Z,76.14
2023-12-30T12:45:09.919Z,75.86
2023-12-30T12:46:15.097Z,78.03
2023-12-30T12:47:18.521Z,77.33
2023-12-30T12:48:20.943Z,75.88
2023-12-30T12:49:24.838Z,76.99
2023-12-30T12:50:27.902Z,77.95
2023-12-30T12:51:32.083Z,76.30
2023-12-30T12:52:35.686Z,76.09
2023-12-30T12:53:38.868Z,76.38
2023-12-30T12:54:41.782Z,78.27
2023-12-30T12:55:44.475Z,77.17
2023-12-30T12:56:48.344Z,80.52
2023-12-30T12:57:51.189Z,80.09
2023-12-30T12:58:53.716Z,79.23
2023-12-30T12:59:56.493Z,77.79
2023-12-30T13:00:59.597Z,80.83
2023-12-30T13:02:02.782Z,78.77
2023-12-30T13:03:06.258Z,77.15
2023-12-30T13:04:16.363Z,79.63
2023-12-30T13:05:23.549Z,78.40
2023-12-30T13:06:29.498Z,79.99
2023-12-30T13:07:32.536Z,78.92
2023-12-30T13:08:36.705Z,78.92
2023-12-30T13:09:46.042Z,78.93
2023-12-30T13:10:51.183Z,79.48
2023-12-30T13:11:54.017Z,80.33
2023-12-30T13:12:59.372Z,79.60
2023-12-30T13:14:04.833Z,80.90
2023-12-30T13:15:09.970Z,80.18
2023-12-30T13:16:13.898Z,78.96
2023-12-30T13:17:17.794Z,78.80
2023-12-30T13:18:21.759Z,80.67
2023-12-30T13:19:24.966Z,81.75
2023-12-30T13:20:28.910Z,79.13
2023-12-30T13:21:32.277Z,80.91
2023-12-30T13:22:39.321Z,82.20
2023-12-30T13:23:42.099Z,81.94
2023-12-30T13:24:46.642Z,79.10
2023-12-30T13:25:49.502Z,79.21
2023-12-30T13:26:54.513Z,80.10
2023-12-30T13:27:58.834Z,80.38
2023-12-30T13:29:02.836Z,80.31
2023-12-30T13:30:08.068Z,82.45
2023-12-30T13:31:12.221Z,81.30
2023-12-30T13:32:16.158Z,80.60
2023-12-30T13:33:23.747Z,80.62
2023-12-30T13:34:31.903Z,81.16
2023-12-30T13:35:39.174Z,85.76
2023-12-30T13:36:42.010Z,83.87
2023-12-30T13:37:46.909Z,84.23
2023-12-30T13:38:52.303Z,86.33
2023-12-30T13:39:59.387Z,88.04
2023-12-30T13:41:05.229Z,84.42
2023-12-30T13:42:09.725Z,86.83